sensor_id;sensor_type;location;lat;lon;timestamp;temperature;humidity
17364;DHT22;8799;43.594;13.526;2023-06-05T00:01:32;23.70;99.90
17364;DHT22;8799;43.594;13.526;2023-06-05T00:04:00;23.70;99.90
17364;DHT22;8799;43.594;13.526;2023-06-05T00:06:28;23.70;99.90
17364;DHT22;8799;43.594;13.526;2023-06-05T00:08:56;23.70;99.90
17364;DHT22;8799;43.594;13.526;2023-06-05T00:11:28;23.70;99.90
17364;DHT22;8799;43.594;13.526;2023-06-05T00:13:56;23.70;99.90
17364;DHT22;8799;43.594;13.526;2023-06-05T00:16:25;23.70;99.90
17364;DHT22;8799;43.594;13.526;2023-06-05T00:18:52;23.70;99.90
17364;DHT22;8799;43.594;13.526;2023-06-05T00:21:20;23.70;99.90
17364;DHT22;8799;43.594;13.526;2023-06-05T00:23:48;23.70;99.90
17364;DHT22;8799;43.594;13.526;2023-06-05T00:26:18;23.70;99.90
17364;DHT22;8799;43.594;13.526;2023-06-05T00:28:47;23.70;99.90
17364;DHT22;8799;43.594;13.526;2023-06-05T00:31:16;23.70;99.90
17364;DHT22;8799;43.594;13.526;2023-06-05T00:33:44;23.70;99.90
17364;DHT22;8799;43.594;13.526;2023-06-05T00:36:15;23.70;99.90
17364;DHT22;8799;43.594;13.526;2023-06-05T00:38:43;23.70;99.90
17364;DHT22;8799;43.594;13.526;2023-06-05T00:41:12;23.70;99.90
17364;DHT22;8799;43.594;13.526;2023-06-05T00:43:40;23.70;99.90
17364;DHT22;8799;43.594;13.526;2023-06-05T00:46:10;23.70;99.90
17364;DHT22;8799;43.594;13.526;2023-06-05T00:48:40;23.70;99.90
17364;DHT22;8799;43.594;13.526;2023-06-05T00:51:08;23.70;99.90
17364;DHT22;8799;43.594;13.526;2023-06-05T00:53:40;23.30;99.90
17364;DHT22;8799;43.594;13.526;2023-06-05T00:56:09;23.70;99.90
17364;DHT22;8799;43.594;13.526;2023-06-05T00:58:36;23.70;99.90
17364;DHT22;8799;43.594;13.526;2023-06-05T01:01:05;23.70;99.90
17364;DHT22;8799;43.594;13.526;2023-06-05T01:03:35;23.70;99.90
17364;DHT22;8799;43.594;13.526;2023-06-05T01:06:05;23.70;99.90
17364;DHT22;8799;43.594;13.526;2023-06-05T01:08:34;23.70;99.90
17364;DHT22;8799;43.594;13.526;2023-06-05T01:11:19;23.70;99.90
17364;DHT22;8799;43.594;13.526;2023-06-05T01:13:54;23.70;99.90
17364;DHT22;8799;43.594;13.526;2023-06-05T01:16:22;23.70;99.90
17364;DHT22;8799;43.594;13.526;2023-06-05T01:18:59;23.70;99.90
17364;DHT22;8799;43.594;13.526;2023-06-05T01:21:28;23.70;99.90
17364;DHT22;8799;43.594;13.526;2023-06-05T01:23:58;23.70;99.90
17364;DHT22;8799;43.594;13.526;2023-06-05T01:26:33;23.70;99.90
17364;DHT22;8799;43.594;13.526;2023-06-05T01:29:05;23.70;99.90
17364;DHT22;8799;43.594;13.526;2023-06-05T01:31:34;23.70;99.90
17364;DHT22;8799;43.594;13.526;2023-06-05T01:34:07;23.70;99.90
17364;DHT22;8799;43.594;13.526;2023-06-05T01:36:38;23.70;99.90
17364;DHT22;8799;43.594;13.526;2023-06-05T01:39:10;23.70;99.90
17364;DHT22;8799;43.594;13.526;2023-06-05T01:41:39;23.70;99.90
17364;DHT22;8799;43.594;13.526;2023-06-05T01:44:09;23.70;99.90
17364;DHT22;8799;43.594;13.526;2023-06-05T01:46:42;23.70;99.90
17364;DHT22;8799;43.594;13.526;2023-06-05T01:49:11;23.60;99.90
17364;DHT22;8799;43.594;13.526;2023-06-05T01:51:39;23.70;99.90
17364;DHT22;8799;43.594;13.526;2023-06-05T01:54:08;23.70;99.90
17364;DHT22;8799;43.594;13.526;2023-06-05T01:56:37;23.70;99.90
17364;DHT22;8799;43.594;13.526;2023-06-05T01:59:05;23.70;99.90
17364;DHT22;8799;43.594;13.526;2023-06-05T02:01:34;23.70;99.90
17364;DHT22;8799;43.594;13.526;2023-06-05T02:04:02;23.70;99.90
17364;DHT22;8799;43.594;13.526;2023-06-05T02:06:32;23.70;99.90
17364;DHT22;8799;43.594;13.526;2023-06-05T02:09:09;23.70;99.90
17364;DHT22;8799;43.594;13.526;2023-06-05T02:11:42;23.70;99.90
17364;DHT22;8799;43.594;13.526;2023-06-05T02:14:11;23.70;99.90
17364;DHT22;8799;43.594;13.526;2023-06-05T02:16:40;23.70;99.90
17364;DHT22;8799;43.594;13.526;2023-06-05T02:19:08;23.70;99.90
17364;DHT22;8799;43.594;13.526;2023-06-05T02:21:36;23.70;99.90
17364;DHT22;8799;43.594;13.526;2023-06-05T02:24:05;23.70;99.90
17364;DHT22;8799;43.594;13.526;2023-06-05T02:26:34;23.70;99.90
17364;DHT22;8799;43.594;13.526;2023-06-05T02:29:03;23.70;99.90
17364;DHT22;8799;43.594;13.526;2023-06-05T02:31:31;23.70;99.90
17364;DHT22;8799;43.594;13.526;2023-06-05T02:33:59;23.70;99.90
17364;DHT22;8799;43.594;13.526;2023-06-05T02:36:26;23.70;99.90
17364;DHT22;8799;43.594;13.526;2023-06-05T02:38:58;23.70;99.90
17364;DHT22;8799;43.594;13.526;2023-06-05T02:41:27;23.70;99.90
17364;DHT22;8799;43.594;13.526;2023-06-05T02:43:57;23.70;99.90
17364;DHT22;8799;43.594;13.526;2023-06-05T02:46:25;23.70;99.90
17364;DHT22;8799;43.594;13.526;2023-06-05T02:48:54;23.70;99.90
17364;DHT22;8799;43.594;13.526;2023-06-05T02:51:22;23.70;99.90
17364;DHT22;8799;43.594;13.526;2023-06-05T02:53:50;23.70;99.90
17364;DHT22;8799;43.594;13.526;2023-06-05T02:56:19;23.70;99.90
17364;DHT22;8799;43.594;13.526;2023-06-05T02:58:47;24.60;99.90
17364;DHT22;8799;43.594;13.526;2023-06-05T03:01:17;23.70;99.90
17364;DHT22;8799;43.594;13.526;2023-06-05T03:03:47;23.70;99.90
17364;DHT22;8799;43.594;13.526;2023-06-05T03:06:15;23.70;99.90
17364;DHT22;8799;43.594;13.526;2023-06-05T03:08:44;23.70;99.90
17364;DHT22;8799;43.594;13.526;2023-06-05T03:11:12;23.70;99.90
17364;DHT22;8799;43.594;13.526;2023-06-05T03:13:43;23.70;99.90
17364;DHT22;8799;43.594;13.526;2023-06-05T03:16:11;23.70;99.90
17364;DHT22;8799;43.594;13.526;2023-06-05T03:18:41;23.70;99.90
17364;DHT22;8799;43.594;13.526;2023-06-05T03:21:09;23.70;99.90
17364;DHT22;8799;43.594;13.526;2023-06-05T03:23:37;23.70;99.90
17364;DHT22;8799;43.594;13.526;2023-06-05T03:26:05;23.70;99.90
17364;DHT22;8799;43.594;13.526;2023-06-05T03:28:33;23.70;99.90
17364;DHT22;8799;43.594;13.526;2023-06-05T03:31:02;23.70;99.90
17364;DHT22;8799;43.594;13.526;2023-06-05T03:33:35;23.70;99.90
17364;DHT22;8799;43.594;13.526;2023-06-05T03:36:05;23.70;99.90
17364;DHT22;8799;43.594;13.526;2023-06-05T03:38:34;23.70;99.90
17364;DHT22;8799;43.594;13.526;2023-06-05T03:41:06;23.70;99.90
17364;DHT22;8799;43.594;13.526;2023-06-05T03:43:34;23.70;99.90
17364;DHT22;8799;43.594;13.526;2023-06-05T03:46:02;23.60;99.90
17364;DHT22;8799;43.594;13.526;2023-06-05T03:48:32;23.70;99.90
17364;DHT22;8799;43.594;13.526;2023-06-05T03:51:00;23.70;99.90
17364;DHT22;8799;43.594;13.526;2023-06-05T03:53:30;23.70;99.90
17364;DHT22;8799;43.594;13.526;2023-06-05T03:55:58;23.70;99.90
17364;DHT22;8799;43.594;13.526;2023-06-05T03:58:25;23.60;99.90
17364;DHT22;8799;43.594;13.526;2023-06-05T04:00:54;23.70;99.90
17364;DHT22;8799;43.594;13.526;2023-06-05T04:03:22;23.60;99.90
17364;DHT22;8799;43.594;13.526;2023-06-05T04:05:57;23.70;99.90
17364;DHT22;8799;43.594;13.526;2023-06-05T04:08:26;23.70;99.90
17364;DHT22;8799;43.594;13.526;2023-06-05T04:10:55;23.60;99.90
17364;DHT22;8799;43.594;13.526;2023-06-05T04:13:23;23.60;99.90
17364;DHT22;8799;43.594;13.526;2023-06-05T04:15:51;23.60;99.90
17364;DHT22;8799;43.594;13.526;2023-06-05T04:18:19;23.60;99.90
17364;DHT22;8799;43.594;13.526;2023-06-05T04:20:48;23.70;99.90
17364;DHT22;8799;43.594;13.526;2023-06-05T04:23:15;23.60;99.90
17364;DHT22;8799;43.594;13.526;2023-06-05T04:25:43;23.70;99.90
17364;DHT22;8799;43.594;13.526;2023-06-05T04:28:12;23.60;99.90
17364;DHT22;8799;43.594;13.526;2023-06-05T04:30:41;23.60;99.90
17364;DHT22;8799;43.594;13.526;2023-06-05T04:33:11;23.60;99.90
17364;DHT22;8799;43.594;13.526;2023-06-05T04:35:40;23.60;99.90
17364;DHT22;8799;43.594;13.526;2023-06-05T04:38:08;23.60;99.90
17364;DHT22;8799;43.594;13.526;2023-06-05T04:40:35;23.60;99.90
17364;DHT22;8799;43.594;13.526;2023-06-05T04:43:06;23.60;99.90
17364;DHT22;8799;43.594;13.526;2023-06-05T04:45:36;23.80;99.90
17364;DHT22;8799;43.594;13.526;2023-06-05T04:48:05;23.60;99.90
17364;DHT22;8799;43.594;13.526;2023-06-05T04:50:33;23.60;99.90
17364;DHT22;8799;43.594;13.526;2023-06-05T04:53:03;23.60;99.90
17364;DHT22;8799;43.594;13.526;2023-06-05T04:55:30;23.50;99.90
17364;DHT22;8799;43.594;13.526;2023-06-05T04:57:58;23.60;99.90
17364;DHT22;8799;43.594;13.526;2023-06-05T05:00:26;23.60;99.90
17364;DHT22;8799;43.594;13.526;2023-06-05T05:02:56;23.60;99.90
17364;DHT22;8799;43.594;13.526;2023-06-05T05:05:25;23.60;99.90
17364;DHT22;8799;43.594;13.526;2023-06-05T05:07:53;23.60;99.90
17364;DHT22;8799;43.594;13.526;2023-06-05T05:10:23;23.60;99.90
17364;DHT22;8799;43.594;13.526;2023-06-05T05:12:50;23.60;99.90
17364;DHT22;8799;43.594;13.526;2023-06-05T05:15:18;23.60;99.90
17364;DHT22;8799;43.594;13.526;2023-06-05T05:17:48;23.60;99.90
17364;DHT22;8799;43.594;13.526;2023-06-05T05:20:19;23.60;99.90
17364;DHT22;8799;43.594;13.526;2023-06-05T05:22:47;23.60;99.90
17364;DHT22;8799;43.594;13.526;2023-06-05T05:25:14;23.60;99.90
17364;DHT22;8799;43.594;13.526;2023-06-05T05:27:42;23.60;99.90
17364;DHT22;8799;43.594;13.526;2023-06-05T05:30:10;23.70;99.90
17364;DHT22;8799;43.594;13.526;2023-06-05T05:32:39;23.80;99.90
17364;DHT22;8799;43.594;13.526;2023-06-05T05:35:08;23.90;99.90
17364;DHT22;8799;43.594;13.526;2023-06-05T05:37:38;23.70;99.90
17364;DHT22;8799;43.594;13.526;2023-06-05T05:40:07;23.80;99.90
17364;DHT22;8799;43.594;13.526;2023-06-05T05:42:36;23.80;99.90
17364;DHT22;8799;43.594;13.526;2023-06-05T05:45:06;23.80;99.90
17364;DHT22;8799;43.594;13.526;2023-06-05T05:47:34;23.70;99.90
17364;DHT22;8799;43.594;13.526;2023-06-05T05:50:02;23.70;99.90
17364;DHT22;8799;43.594;13.526;2023-06-05T05:52:30;23.70;99.90
17364;DHT22;8799;43.594;13.526;2023-06-05T05:54:59;23.70;99.90
17364;DHT22;8799;43.594;13.526;2023-06-05T05:57:29;23.70;99.90
17364;DHT22;8799;43.594;13.526;2023-06-05T05:59:58;23.60;99.90
17364;DHT22;8799;43.594;13.526;2023-06-05T06:02:26;23.70;99.90
17364;DHT22;8799;43.594;13.526;2023-06-05T06:04:55;23.60;99.90
17364;DHT22;8799;43.594;13.526;2023-06-05T06:07:23;23.60;99.90
17364;DHT22;8799;43.594;13.526;2023-06-05T06:09:51;23.60;99.90
17364;DHT22;8799;43.594;13.526;2023-06-05T06:12:21;23.50;99.90
17364;DHT22;8799;43.594;13.526;2023-06-05T06:14:49;23.50;99.90
17364;DHT22;8799;43.594;13.526;2023-06-05T06:17:17;23.60;99.90
17364;DHT22;8799;43.594;13.526;2023-06-05T06:19:45;23.60;99.90
17364;DHT22;8799;43.594;13.526;2023-06-05T06:22:15;23.50;99.90
17364;DHT22;8799;43.594;13.526;2023-06-05T06:24:44;23.50;99.90
17364;DHT22;8799;43.594;13.526;2023-06-05T06:27:12;23.50;99.90
17364;DHT22;8799;43.594;13.526;2023-06-05T06:29:47;23.50;99.90
17364;DHT22;8799;43.594;13.526;2023-06-05T06:32:15;23.50;99.90
17364;DHT22;8799;43.594;13.526;2023-06-05T06:34:43;23.50;99.90
17364;DHT22;8799;43.594;13.526;2023-06-05T06:37:12;23.50;99.90
17364;DHT22;8799;43.594;13.526;2023-06-05T06:39:40;23.50;99.90
17364;DHT22;8799;43.594;13.526;2023-06-05T06:42:08;23.50;99.90
17364;DHT22;8799;43.594;13.526;2023-06-05T06:44:37;23.50;99.90
17364;DHT22;8799;43.594;13.526;2023-06-05T06:47:07;23.50;99.90
17364;DHT22;8799;43.594;13.526;2023-06-05T06:49:36;23.50;99.90
17364;DHT22;8799;43.594;13.526;2023-06-05T06:52:05;23.50;99.90
17364;DHT22;8799;43.594;13.526;2023-06-05T06:54:33;23.50;99.90
17364;DHT22;8799;43.594;13.526;2023-06-05T06:57:01;23.50;99.90
17364;DHT22;8799;43.594;13.526;2023-06-05T06:59:29;23.50;99.90
17364;DHT22;8799;43.594;13.526;2023-06-05T07:02:11;23.50;99.90
17364;DHT22;8799;43.594;13.526;2023-06-05T07:04:40;23.40;99.90
17364;DHT22;8799;43.594;13.526;2023-06-05T07:07:09;23.40;99.90
17364;DHT22;8799;43.594;13.526;2023-06-05T07:09:38;23.50;99.90
17364;DHT22;8799;43.594;13.526;2023-06-05T07:12:08;23.40;99.90
17364;DHT22;8799;43.594;13.526;2023-06-05T07:14:37;23.40;99.90
17364;DHT22;8799;43.594;13.526;2023-06-05T07:17:05;23.50;99.90
17364;DHT22;8799;43.594;13.526;2023-06-05T07:19:35;23.50;99.90
17364;DHT22;8799;43.594;13.526;2023-06-05T07:22:04;23.40;99.90
17364;DHT22;8799;43.594;13.526;2023-06-05T07:24:34;23.40;99.90
17364;DHT22;8799;43.594;13.526;2023-06-05T07:27:04;23.40;99.90
17364;DHT22;8799;43.594;13.526;2023-06-05T07:29:32;23.40;99.90
17364;DHT22;8799;43.594;13.526;2023-06-05T07:32:00;23.40;99.90
17364;DHT22;8799;43.594;13.526;2023-06-05T07:34:31;23.40;99.90
17364;DHT22;8799;43.594;13.526;2023-06-05T07:37:01;23.40;99.90
17364;DHT22;8799;43.594;13.526;2023-06-05T07:39:30;23.40;99.90
17364;DHT22;8799;43.594;13.526;2023-06-05T07:41:58;23.40;99.90
17364;DHT22;8799;43.594;13.526;2023-06-05T07:44:25;23.40;99.90
17364;DHT22;8799;43.594;13.526;2023-06-05T07:46:59;23.40;99.90
17364;DHT22;8799;43.594;13.526;2023-06-05T07:49:29;23.40;99.90
17364;DHT22;8799;43.594;13.526;2023-06-05T07:51:57;23.40;99.90
17364;DHT22;8799;43.594;13.526;2023-06-05T07:54:27;23.40;99.90
17364;DHT22;8799;43.594;13.526;2023-06-05T07:56:54;23.40;99.90
17364;DHT22;8799;43.594;13.526;2023-06-05T07:59:23;23.30;99.90
17364;DHT22;8799;43.594;13.526;2023-06-05T08:01:53;23.40;99.90
17364;DHT22;8799;43.594;13.526;2023-06-05T08:04:23;23.40;99.90
17364;DHT22;8799;43.594;13.526;2023-06-05T08:06:53;23.40;99.90
17364;DHT22;8799;43.594;13.526;2023-06-05T08:09:21;23.40;99.90
17364;DHT22;8799;43.594;13.526;2023-06-05T08:11:51;23.40;99.90
17364;DHT22;8799;43.594;13.526;2023-06-05T08:14:19;23.40;99.90
17364;DHT22;8799;43.594;13.526;2023-06-05T08:16:47;23.40;99.90
17364;DHT22;8799;43.594;13.526;2023-06-05T08:19:15;23.40;99.90
17364;DHT22;8799;43.594;13.526;2023-06-05T08:21:43;23.40;99.90
17364;DHT22;8799;43.594;13.526;2023-06-05T08:24:11;23.40;99.90
17364;DHT22;8799;43.594;13.526;2023-06-05T08:26:39;23.40;99.90
17364;DHT22;8799;43.594;13.526;2023-06-05T08:29:08;23.40;99.90
17364;DHT22;8799;43.594;13.526;2023-06-05T08:31:37;23.40;99.90
17364;DHT22;8799;43.594;13.526;2023-06-05T08:34:05;23.40;99.90
17364;DHT22;8799;43.594;13.526;2023-06-05T08:36:32;23.40;99.90
17364;DHT22;8799;43.594;13.526;2023-06-05T08:39:01;23.40;99.90
17364;DHT22;8799;43.594;13.526;2023-06-05T08:41:30;23.40;99.90
17364;DHT22;8799;43.594;13.526;2023-06-05T08:43:58;23.40;99.90
17364;DHT22;8799;43.594;13.526;2023-06-05T08:46:29;23.40;99.90
17364;DHT22;8799;43.594;13.526;2023-06-05T08:48:58;23.40;99.90
17364;DHT22;8799;43.594;13.526;2023-06-05T08:51:30;23.40;99.90
17364;DHT22;8799;43.594;13.526;2023-06-05T08:54:02;23.40;99.90
17364;DHT22;8799;43.594;13.526;2023-06-05T08:56:31;23.40;99.90
17364;DHT22;8799;43.594;13.526;2023-06-05T08:58:59;23.30;99.90
17364;DHT22;8799;43.594;13.526;2023-06-05T09:01:30;23.30;99.90
17364;DHT22;8799;43.594;13.526;2023-06-05T09:03:59;23.30;99.90
17364;DHT22;8799;43.594;13.526;2023-06-05T09:06:27;23.30;99.90
17364;DHT22;8799;43.594;13.526;2023-06-05T09:08:55;23.30;99.90
17364;DHT22;8799;43.594;13.526;2023-06-05T09:11:24;23.30;99.90
17364;DHT22;8799;43.594;13.526;2023-06-05T09:13:54;23.30;99.90
17364;DHT22;8799;43.594;13.526;2023-06-05T09:16:32;23.30;99.90
17364;DHT22;8799;43.594;13.526;2023-06-05T09:19:02;23.30;99.90
17364;DHT22;8799;43.594;13.526;2023-06-05T09:21:31;23.30;99.90
17364;DHT22;8799;43.594;13.526;2023-06-05T09:24:14;23.30;99.90
17364;DHT22;8799;43.594;13.526;2023-06-05T09:26:52;23.30;99.90
17364;DHT22;8799;43.594;13.526;2023-06-05T09:29:22;23.30;99.90
17364;DHT22;8799;43.594;13.526;2023-06-05T09:31:50;23.30;99.90
17364;DHT22;8799;43.594;13.526;2023-06-05T09:34:24;23.30;99.90
17364;DHT22;8799;43.594;13.526;2023-06-05T09:36:52;23.30;99.90
17364;DHT22;8799;43.594;13.526;2023-06-05T09:39:21;23.30;99.90
17364;DHT22;8799;43.594;13.526;2023-06-05T09:41:50;23.30;99.90
17364;DHT22;8799;43.594;13.526;2023-06-05T09:44:18;23.30;99.90
17364;DHT22;8799;43.594;13.526;2023-06-05T09:46:54;23.30;99.90
17364;DHT22;8799;43.594;13.526;2023-06-05T09:49:25;23.30;99.90
17364;DHT22;8799;43.594;13.526;2023-06-05T09:51:53;23.30;99.90
17364;DHT22;8799;43.594;13.526;2023-06-05T09:54:22;23.30;99.90
17364;DHT22;8799;43.594;13.526;2023-06-05T09:56:57;23.30;99.90
17364;DHT22;8799;43.594;13.526;2023-06-05T09:59:27;23.30;99.90
17364;DHT22;8799;43.594;13.526;2023-06-05T10:01:56;23.30;99.90
17364;DHT22;8799;43.594;13.526;2023-06-05T10:04:28;23.30;99.90
17364;DHT22;8799;43.594;13.526;2023-06-05T10:07:01;23.30;99.90
17364;DHT22;8799;43.594;13.526;2023-06-05T10:09:30;23.30;99.90
17364;DHT22;8799;43.594;13.526;2023-06-05T10:11:59;23.30;99.90
17364;DHT22;8799;43.594;13.526;2023-06-05T10:14:27;23.30;99.90
17364;DHT22;8799;43.594;13.526;2023-06-05T10:16:56;23.30;99.90
17364;DHT22;8799;43.594;13.526;2023-06-05T10:19:24;23.30;99.90
17364;DHT22;8799;43.594;13.526;2023-06-05T10:21:54;23.30;99.90
17364;DHT22;8799;43.594;13.526;2023-06-05T10:24:26;23.30;99.90
17364;DHT22;8799;43.594;13.526;2023-06-05T10:27:37;23.30;99.90
17364;DHT22;8799;43.594;13.526;2023-06-05T10:30:40;23.30;99.90
17364;DHT22;8799;43.594;13.526;2023-06-05T10:33:25;23.30;99.90
17364;DHT22;8799;43.594;13.526;2023-06-05T10:36:06;23.30;99.90
17364;DHT22;8799;43.594;13.526;2023-06-05T10:38:39;23.30;99.90
17364;DHT22;8799;43.594;13.526;2023-06-05T10:41:07;23.30;99.90
17364;DHT22;8799;43.594;13.526;2023-06-05T10:43:37;23.30;99.90
17364;DHT22;8799;43.594;13.526;2023-06-05T10:46:30;23.30;99.90
17364;DHT22;8799;43.594;13.526;2023-06-05T10:49:08;23.30;99.90
17364;DHT22;8799;43.594;13.526;2023-06-05T10:51:38;23.20;99.90
17364;DHT22;8799;43.594;13.526;2023-06-05T10:54:10;23.30;99.90
17364;DHT22;8799;43.594;13.526;2023-06-05T10:56:57;23.30;99.90
17364;DHT22;8799;43.594;13.526;2023-06-05T10:59:26;23.30;99.90
17364;DHT22;8799;43.594;13.526;2023-06-05T11:02:22;23.30;99.90
17364;DHT22;8799;43.594;13.526;2023-06-05T11:05:03;23.20;99.90
17364;DHT22;8799;43.594;13.526;2023-06-05T11:07:32;23.30;99.90
17364;DHT22;8799;43.594;13.526;2023-06-05T11:10:09;23.30;99.90
17364;DHT22;8799;43.594;13.526;2023-06-05T11:13:01;23.20;99.90
17364;DHT22;8799;43.594;13.526;2023-06-05T11:15:36;23.30;99.90
17364;DHT22;8799;43.594;13.526;2023-06-05T11:18:32;23.30;99.90
17364;DHT22;8799;43.594;13.526;2023-06-05T11:21:01;23.20;99.90
17364;DHT22;8799;43.594;13.526;2023-06-05T11:23:29;23.20;99.90
17364;DHT22;8799;43.594;13.526;2023-06-05T11:29:11;23.20;99.90
17364;DHT22;8799;43.594;13.526;2023-06-05T11:31:40;23.20;99.90
17364;DHT22;8799;43.594;13.526;2023-06-05T11:34:11;23.30;99.90
17364;DHT22;8799;43.594;13.526;2023-06-05T11:36:40;23.20;99.90
17364;DHT22;8799;43.594;13.526;2023-06-05T11:39:08;23.30;99.90
17364;DHT22;8799;43.594;13.526;2023-06-05T11:41:43;23.20;99.90
17364;DHT22;8799;43.594;13.526;2023-06-05T11:44:11;23.20;99.90
17364;DHT22;8799;43.594;13.526;2023-06-05T11:46:40;23.30;99.90
17364;DHT22;8799;43.594;13.526;2023-06-05T11:49:23;23.20;99.90
17364;DHT22;8799;43.594;13.526;2023-06-05T11:51:51;23.20;99.90
17364;DHT22;8799;43.594;13.526;2023-06-05T11:54:30;23.20;99.90
17364;DHT22;8799;43.594;13.526;2023-06-05T11:57:02;23.30;99.90
17364;DHT22;8799;43.594;13.526;2023-06-05T11:59:37;23.20;99.90
17364;DHT22;8799;43.594;13.526;2023-06-05T12:02:05;23.20;99.90
17364;DHT22;8799;43.594;13.526;2023-06-05T12:04:34;23.20;99.90
17364;DHT22;8799;43.594;13.526;2023-06-05T12:07:02;23.20;99.90
17364;DHT22;8799;43.594;13.526;2023-06-05T12:09:30;23.30;99.90
17364;DHT22;8799;43.594;13.526;2023-06-05T12:12:10;23.20;99.90
17364;DHT22;8799;43.594;13.526;2023-06-05T12:14:38;23.20;99.90
17364;DHT22;8799;43.594;13.526;2023-06-05T12:17:10;23.30;99.90
17364;DHT22;8799;43.594;13.526;2023-06-05T12:19:38;23.20;99.90
17364;DHT22;8799;43.594;13.526;2023-06-05T12:22:07;23.20;99.90
17364;DHT22;8799;43.594;13.526;2023-06-05T12:24:35;23.20;99.90
17364;DHT22;8799;43.594;13.526;2023-06-05T12:27:03;23.30;99.90
17364;DHT22;8799;43.594;13.526;2023-06-05T12:29:34;23.20;99.90
17364;DHT22;8799;43.594;13.526;2023-06-05T12:32:19;23.30;99.90
17364;DHT22;8799;43.594;13.526;2023-06-05T12:34:48;23.20;99.90
17364;DHT22;8799;43.594;13.526;2023-06-05T12:37:24;23.20;99.90
17364;DHT22;8799;43.594;13.526;2023-06-05T12:39:54;23.20;99.90
17364;DHT22;8799;43.594;13.526;2023-06-05T12:42:22;23.10;99.90
17364;DHT22;8799;43.594;13.526;2023-06-05T12:44:51;23.20;99.90
17364;DHT22;8799;43.594;13.526;2023-06-05T12:47:19;23.10;99.90
17364;DHT22;8799;43.594;13.526;2023-06-05T12:49:48;23.20;99.90
17364;DHT22;8799;43.594;13.526;2023-06-05T12:52:16;23.20;99.90
17364;DHT22;8799;43.594;13.526;2023-06-05T12:54:44;23.20;99.90
17364;DHT22;8799;43.594;13.526;2023-06-05T12:57:12;23.20;99.90
17364;DHT22;8799;43.594;13.526;2023-06-05T12:59:40;23.20;99.90
17364;DHT22;8799;43.594;13.526;2023-06-05T13:02:09;23.20;99.90
17364;DHT22;8799;43.594;13.526;2023-06-05T13:04:38;23.20;99.90
17364;DHT22;8799;43.594;13.526;2023-06-05T13:07:07;23.20;99.90
17364;DHT22;8799;43.594;13.526;2023-06-05T13:09:37;23.20;99.90
17364;DHT22;8799;43.594;13.526;2023-06-05T13:12:05;23.20;99.90
17364;DHT22;8799;43.594;13.526;2023-06-05T13:14:34;23.20;99.90
17364;DHT22;8799;43.594;13.526;2023-06-05T13:17:02;23.20;99.90
17364;DHT22;8799;43.594;13.526;2023-06-05T13:19:31;23.20;99.90
17364;DHT22;8799;43.594;13.526;2023-06-05T13:22:00;23.20;99.90
17364;DHT22;8799;43.594;13.526;2023-06-05T13:24:30;23.20;99.90
17364;DHT22;8799;43.594;13.526;2023-06-05T13:26:59;23.20;99.90
17364;DHT22;8799;43.594;13.526;2023-06-05T13:29:27;23.20;99.90
17364;DHT22;8799;43.594;13.526;2023-06-05T13:31:55;23.20;99.90
17364;DHT22;8799;43.594;13.526;2023-06-05T13:34:23;23.20;99.90
17364;DHT22;8799;43.594;13.526;2023-06-05T13:36:52;23.20;99.90
17364;DHT22;8799;43.594;13.526;2023-06-05T13:39:20;23.20;99.90
17364;DHT22;8799;43.594;13.526;2023-06-05T13:41:48;23.20;99.90
17364;DHT22;8799;43.594;13.526;2023-06-05T13:44:17;23.20;99.90
17364;DHT22;8799;43.594;13.526;2023-06-05T13:46:45;23.20;99.90
17364;DHT22;8799;43.594;13.526;2023-06-05T13:49:13;23.20;99.90
17364;DHT22;8799;43.594;13.526;2023-06-05T13:51:42;23.20;99.90
17364;DHT22;8799;43.594;13.526;2023-06-05T13:54:11;23.20;99.90
17364;DHT22;8799;43.594;13.526;2023-06-05T13:56:39;23.20;99.90
17364;DHT22;8799;43.594;13.526;2023-06-05T13:59:07;23.20;99.90
17364;DHT22;8799;43.594;13.526;2023-06-05T14:01:35;23.30;99.90
17364;DHT22;8799;43.594;13.526;2023-06-05T14:04:03;23.30;99.90
17364;DHT22;8799;43.594;13.526;2023-06-05T14:06:31;23.30;99.90
17364;DHT22;8799;43.594;13.526;2023-06-05T14:09:02;23.20;99.90
17364;DHT22;8799;43.594;13.526;2023-06-05T14:11:32;23.20;99.90
17364;DHT22;8799;43.594;13.526;2023-06-05T14:14:00;23.20;99.90
17364;DHT22;8799;43.594;13.526;2023-06-05T14:16:28;23.30;99.90
17364;DHT22;8799;43.594;13.526;2023-06-05T14:18:56;23.20;99.90
17364;DHT22;8799;43.594;13.526;2023-06-05T14:21:24;23.20;99.90
17364;DHT22;8799;43.594;13.526;2023-06-05T14:23:52;23.20;99.90
17364;DHT22;8799;43.594;13.526;2023-06-05T14:26:20;23.20;99.90
17364;DHT22;8799;43.594;13.526;2023-06-05T14:28:50;23.30;99.90
17364;DHT22;8799;43.594;13.526;2023-06-05T14:31:18;23.10;99.90
17364;DHT22;8799;43.594;13.526;2023-06-05T14:33:46;23.30;99.90
17364;DHT22;8799;43.594;13.526;2023-06-05T14:36:14;23.30;99.90
17364;DHT22;8799;43.594;13.526;2023-06-05T14:38:42;23.30;99.90
17364;DHT22;8799;43.594;13.526;2023-06-05T14:41:14;23.20;99.90
17364;DHT22;8799;43.594;13.526;2023-06-05T14:43:42;23.30;99.90
17364;DHT22;8799;43.594;13.526;2023-06-05T14:46:11;23.30;99.90
17364;DHT22;8799;43.594;13.526;2023-06-05T14:48:39;23.20;99.90
17364;DHT22;8799;43.594;13.526;2023-06-05T14:51:07;23.20;99.90
17364;DHT22;8799;43.594;13.526;2023-06-05T14:53:35;23.20;99.90
17364;DHT22;8799;43.594;13.526;2023-06-05T14:56:03;23.20;99.90
17364;DHT22;8799;43.594;13.526;2023-06-05T14:58:30;23.20;99.90
17364;DHT22;8799;43.594;13.526;2023-06-05T15:00:58;23.20;99.90
17364;DHT22;8799;43.594;13.526;2023-06-05T15:03:28;23.20;99.90
17364;DHT22;8799;43.594;13.526;2023-06-05T15:05:56;23.20;99.90
17364;DHT22;8799;43.594;13.526;2023-06-05T15:08:23;23.20;99.90
17364;DHT22;8799;43.594;13.526;2023-06-05T15:10:51;23.30;99.90
17364;DHT22;8799;43.594;13.526;2023-06-05T15:13:18;23.30;99.90
17364;DHT22;8799;43.594;13.526;2023-06-05T15:15:47;23.20;99.90
17364;DHT22;8799;43.594;13.526;2023-06-05T15:18:15;23.20;99.90
17364;DHT22;8799;43.594;13.526;2023-06-05T15:20:45;23.20;99.90
17364;DHT22;8799;43.594;13.526;2023-06-05T15:23:14;23.20;99.90
17364;DHT22;8799;43.594;13.526;2023-06-05T15:25:42;23.20;99.90
17364;DHT22;8799;43.594;13.526;2023-06-05T15:28:10;23.20;99.90
17364;DHT22;8799;43.594;13.526;2023-06-05T15:30:37;23.20;99.90
17364;DHT22;8799;43.594;13.526;2023-06-05T15:33:05;23.20;99.90
17364;DHT22;8799;43.594;13.526;2023-06-05T15:35:32;23.20;99.90
17364;DHT22;8799;43.594;13.526;2023-06-05T15:38:01;23.20;99.90
17364;DHT22;8799;43.594;13.526;2023-06-05T15:40:29;23.20;99.90
17364;DHT22;8799;43.594;13.526;2023-06-05T15:43:05;23.20;99.90
17364;DHT22;8799;43.594;13.526;2023-06-05T15:45:34;23.20;99.90
17364;DHT22;8799;43.594;13.526;2023-06-05T15:48:03;23.20;99.90
17364;DHT22;8799;43.594;13.526;2023-06-05T15:50:32;23.20;99.90